Time;durP1;ratioP1;P1;durP2;ratioP2;P2;SDS_P1;SDS_P2;PMS_P1;PMS_P2;Temp;Humidity;BMP_temperature;BMP_pressure;BME280_temperature;BME280_humidity;BME280_pressure;Samples;Min_cycle;Max_cycle;Signal;HPM_P1;HPM_P2
2024/04/02 00:01:09;;;;;;;4.43;0.70;;;;;;;14.35;67.27;98589.34;5132042;27;20100;-54
2024/04/02 00:03:36;;;;;;;2.13;0.60;;;;;;;14.10;67.99;98567.72;5131630;27;20491;-54
2024/04/02 00:06:05;;;;;;;3.33;0.70;;;;;;;14.06;68.61;98584.25;5132270;27;20388;-54
2024/04/02 00:08:32;;;;;;;1.13;0.47;;;;;;;14.13;68.30;98594.19;5131952;27;20047;-54
2024/04/02 00:11:03;;;;;;;3.72;0.57;;;;;;;14.25;67.58;98605.53;5131904;27;20134;-55
2024/04/02 00:13:30;;;;;;;1.38;0.30;;;;;;;14.31;67.67;98618.31;5131788;27;20079;-51
2024/04/02 00:15:58;;;;;;;0.38;0.30;;;;;;;14.40;67.17;98622.75;5131735;27;20087;-55
2024/04/02 00:18:24;;;;;;;1.83;0.52;;;;;;;14.09;68.55;98614.28;5131614;27;20047;-51
2024/04/02 00:20:52;;;;;;;1.38;0.43;;;;;;;14.30;68.11;98622.00;5131714;27;20047;-52
2024/04/02 00:23:18;;;;;;;1.85;0.35;;;;;;;14.23;68.40;98643.22;5131618;27;20492;-54
2024/04/02 00:25:47;;;;;;;0.85;0.35;;;;;;;14.13;69.05;98649.66;5131631;27;20131;-53
2024/04/02 00:28:13;;;;;;;0.60;0.30;;;;;;;13.91;70.66;98637.56;5131416;27;20126;-52
2024/04/02 00:30:41;;;;;;;2.60;0.40;;;;;;;13.89;71.47;98626.13;5131800;27;20480;-53
2024/04/02 00:33:07;;;;;;;1.27;0.35;;;;;;;13.93;72.11;98614.97;5131486;27;20096;-53
2024/04/02 00:35:35;;;;;;;1.15;0.35;;;;;;;14.17;71.85;98590.19;5131624;27;20048;-54
2024/04/02 00:38:01;;;;;;;0.50;0.30;;;;;;;14.15;71.64;98581.47;5131598;27;20162;-54
2024/04/02 00:40:28;;;;;;;0.47;0.40;;;;;;;13.95;72.76;98607.59;5131526;27;20046;-55
2024/04/02 00:43:05;;;;;;;0.38;0.35;;;;;;;13.62;74.20;98601.09;5131288;27;20479;-50
2024/04/02 00:45:33;;;;;;;1.65;0.52;;;;;;;13.21;76.20;98606.97;5131435;27;20043;-53
2024/04/02 00:47:59;;;;;;;0.85;0.35;;;;;;;13.09;76.90;98625.88;5131166;27;20123;-55
2024/04/02 00:50:27;;;;;;;1.42;0.30;;;;;;;13.12;77.32;98648.81;5131235;27;20172;-55
2024/04/02 00:52:54;;;;;;;1.85;0.60;;;;;;;13.43;76.32;98673.53;5130898;27;20484;-54
2024/04/02 00:55:21;;;;;;;1.30;0.35;;;;;;;13.30;76.43;98683.72;5131010;27;20035;-52
2024/04/02 00:57:48;;;;;;;0.73;0.30;;;;;;;13.43;75.65;98692.28;5131115;27;20159;-52
2024/04/02 01:00:17;;;;;;;1.40;0.40;;;;;;;13.65;74.84;98685.69;5131120;27;20043;-51
2024/04/02 01:02:44;;;;;;;1.27;0.40;;;;;;;13.71;74.43;98695.81;5131073;27;20078;-53
2024/04/02 01:05:11;;;;;;;0.45;0.30;;;;;;;13.92;73.82;98708.94;5131000;27;20050;-54
2024/04/02 01:07:39;;;;;;;0.70;0.25;;;;;;;13.93;73.27;98710.63;5130885;27;20047;-55
2024/04/02 01:10:07;;;;;;;1.27;0.30;;;;;;;13.68;74.39;98710.31;5130772;27;20127;-55
2024/04/02 01:12:34;;;;;;;0.73;0.25;;;;;;;13.78;73.93;98677.28;5130896;27;20122;-53
2024/04/02 01:15:01;;;;;;;0.68;0.40;;;;;;;13.69;75.12;98676.34;5129536;27;20055;-55
2024/04/02 01:17:29;;;;;;;1.52;0.40;;;;;;;13.60;75.82;98659.31;5131023;27;20466;-55
2024/04/02 01:19:56;;;;;;;1.58;0.30;;;;;;;13.52;77.56;98669.13;5130911;27;20047;-53
2024/04/02 01:22:22;;;;;;;1.48;0.50;;;;;;;13.42;78.95;98658.47;5130807;27;20043;-52
2024/04/02 01:24:58;;;;;;;0.85;0.40;;;;;;;13.40;80.16;98644.34;5130603;27;20107;-53
2024/04/02 01:27:26;;;;;;;3.13;0.40;;;;;;;13.24;80.60;98670.94;5130904;27;20095;-51
2024/04/02 01:29:55;;;;;;;1.98;0.50;;;;;;;13.45;78.95;98671.53;5130756;27;20069;-57
2024/04/02 01:32:21;;;;;;;1.58;0.40;;;;;;;13.08;78.79;98660.81;5130968;27;20063;-55
2024/04/02 01:34:49;;;;;;;0.45;0.45;;;;;;;13.03;79.26;98669.31;5130854;27;20103;-56
2024/04/02 01:37:15;;;;;;;0.40;0.40;;;;;;;12.88;78.90;98686.81;5130843;27;20084;-52
2024/04/02 01:39:42;;;;;;;0.57;0.43;;;;;;;13.18;77.84;98678.53;5130785;27;20043;-56
2024/04/02 01:42:08;;;;;;;1.98;0.32;;;;;;;13.36;77.05;98659.03;5130449;27;20047;-55
2024/04/02 01:44:37;;;;;;;0.95;0.30;;;;;;;13.02;77.97;98643.50;5130547;27;20050;-54
2024/04/02 01:47:03;;;;;;;1.05;0.45;;;;;;;13.05;77.68;98651.25;5130190;27;20057;-53
2024/04/02 01:49:31;;;;;;;0.60;0.35;;;;;;;12.73;78.91;98674.84;5130593;27;20050;-56
2024/04/02 01:51:57;;;;;;;1.30;0.40;;;;;;;12.75;79.95;98667.56;5130257;28;20575;-53
2024/04/02 01:54:24;;;;;;;0.50;0.30;;;;;;;12.73;79.78;98637.41;5130572;28;20051;-53
2024/04/02 01:56:50;;;;;;;1.48;0.52;;;;;;;12.79;79.99;98650.22;5130624;28;20059;-54
2024/04/02 01:59:18;;;;;;;1.23;0.43;;;;;;;12.67;80.37;98699.53;5130424;27;20365;-53
2024/04/02 02:01:45;;;;;;;0.85;0.60;;;;;;;12.44;81.88;98691.78;5130524;27;20079;-56
2024/04/02 02:04:12;;;;;;;0.30;0.30;;;;;;;12.52;81.94;98686.56;5130285;27;20446;-56
2024/04/02 02:06:39;;;;;;;0.55;0.40;;;;;;;12.45;82.10;98685.47;5130251;27;20090;-50
2024/04/02 02:09:07;;;;;;;0.30;0.30;;;;;;;12.67;81.26;98691.50;5130173;28;20484;-55
2024/04/02 02:11:34;;;;;;;0.85;0.50;;;;;;;12.62;81.40;98699.94;5130423;27;20043;-52
2024/04/02 02:14:01;;;;;;;0.60;0.40;;;;;;;12.35;82.13;98703.31;5130364;27;20116;-54
2024/04/02 02:16:28;;;;;;;0.80;0.60;;;;;;;12.64;80.75;98719.34;5130548;27;20142;-55
2024/04/02 02:19:00;;;;;;;1.10;0.60;;;;;;;12.63;80.66;98703.44;5130542;28;20089;-52
2024/04/02 02:21:26;;;;;;;0.35;0.35;;;;;;;12.70;79.97;98678.66;5130875;27;20125;-53
2024/04/02 02:23:53;;;;;;;3.38;0.70;;;;;;;12.63;80.10;98671.34;5130410;27;20609;-55
2024/04/02 02:26:19;;;;;;;0.73;0.50;;;;;;;12.87;78.96;98701.19;5130455;27;20413;-54
2024/04/02 02:28:47;;;;;;;0.73;0.60;;;;;;;12.69;80.28;98689.53;5133113;27;20047;-54
2024/04/02 02:31:14;;;;;;;1.25;0.40;;;;;;;12.68;80.10;98685.16;5134004;27;20047;-53
2024/04/02 02:33:41;;;;;;;1.05;0.60;;;;;;;12.69;79.94;98684.16;5133957;27;20090;-51
2024/04/02 02:36:09;;;;;;;0.98;0.77;;;;;;;12.72;80.05;98697.25;5134173;27;20058;-50
2024/04/02 02:38:36;;;;;;;1.73;0.70;;;;;;;12.77;80.40;98716.41;5134407;27;20043;-53
2024/04/02 02:41:03;;;;;;;0.57;0.55;;;;;;;12.73;81.25;98714.97;5134432;27;20104;-54
2024/04/02 02:43:30;;;;;;;1.08;0.70;;;;;;;12.82;81.20;98724.81;5134510;27;20043;-56
2024/04/02 02:45:57;;;;;;;1.05;0.70;;;;;;;12.57;82.61;98718.25;5134507;27;20039;-53
2024/04/02 02:48:24;;;;;;;0.80;0.57;;;;;;;12.71;83.29;98738.38;5134430;27;20073;-56
2024/04/02 02:50:50;;;;;;;1.67;0.80;;;;;;;12.92;81.90;98738.19;5134204;27;20519;-56
2024/04/02 02:53:19;;;;;;;0.60;0.60;;;;;;;12.93;81.35;98745.22;5134139;27;20054;-54
2024/04/02 02:55:52;;;;;;;1.55;0.63;;;;;;;12.95;80.63;98745.94;5134008;27;20051;-53
2024/04/02 02:58:20;;;;;;;0.60;0.50;;;;;;;12.77;81.48;98764.56;5133302;27;20407;-57
2024/04/02 03:00:46;;;;;;;2.30;0.73;;;;;;;12.65;81.41;98785.28;5133227;27;20483;-54
2024/04/02 03:03:14;;;;;;;1.20;0.70;;;;;;;12.83;81.09;98780.03;5133689;27;20088;-56
2024/04/02 03:05:40;;;;;;;0.65;0.63;;;;;;;12.92;80.31;98784.53;5133463;27;20134;-53
2024/04/02 03:08:08;;;;;;;0.85;0.52;;;;;;;12.89;81.21;98768.78;5133214;27;20142;-54
2024/04/02 03:10:35;;;;;;;0.88;0.60;;;;;;;12.89;79.72;98780.31;5133423;27;20446;-54
2024/04/02 03:13:02;;;;;;;2.42;0.60;;;;;;;12.74;79.62;98759.47;5132949;27;20047;-55
2024/04/02 03:15:29;;;;;;;0.50;0.40;;;;;;;12.50;80.57;98773.28;5133057;27;20112;-57
2024/04/02 03:17:57;;;;;;;1.23;0.70;;;;;;;12.46;80.23;98788.78;5133115;27;20452;-56
2024/04/02 03:20:23;;;;;;;0.93;0.52;;;;;;;12.56;79.88;98799.50;5132879;27;20491;-53
2024/04/02 03:22:50;;;;;;;0.93;0.50;;;;;;;12.70;78.58;98795.53;5133076;27;20047;-54
2024/04/02 03:25:17;;;;;;;1.20;0.60;;;;;;;12.75;78.68;98796.81;5132882;27;20065;-55
2024/04/02 03:27:45;;;;;;;0.88;0.55;;;;;;;12.55;79.03;98812.03;5132929;27;20050;-54
2024/04/02 03:30:12;;;;;;;1.35;0.50;;;;;;;12.57;78.32;98796.66;5132634;27;20068;-56
2024/04/02 03:32:39;;;;;;;0.52;0.50;;;;;;;12.55;77.23;98813.84;5132967;27;20130;-52
2024/04/02 03:35:05;;;;;;;1.98;0.60;;;;;;;12.31;77.60;98811.56;5132806;27;20130;-51
2024/04/02 03:37:32;;;;;;;1.58;0.50;;;;;;;12.26;78.19;98814.66;5132647;27;20047;-51
2024/04/02 03:40:00;;;;;;;0.90;0.57;;;;;;;12.38;78.35;98811.84;5131971;27;20047;-52
2024/04/02 03:42:27;;;;;;;0.93;0.50;;;;;;;12.14;78.00;98814.88;5132350;27;20062;-53
2024/04/02 03:44:55;;;;;;;1.05;0.60;;;;;;;12.29;77.62;98821.53;5132417;27;20104;-51
2024/04/02 03:47:22;;;;;;;0.55;0.38;;;;;;;12.34;77.85;98821.97;5132384;27;20115;-53
2024/04/02 03:49:48;;;;;;;1.08;0.52;;;;;;;12.29;78.73;98827.72;5132512;27;20644;-54
2024/04/02 03:52:15;;;;;;;0.85;0.57;;;;;;;12.58;77.88;98835.81;5132299;27;20129;-53
2024/04/02 03:54:41;;;;;;;0.80;0.47;;;;;;;12.77;76.72;98836.81;5132141;27;20075;-53
2024/04/02 03:57:09;;;;;;;0.82;0.50;;;;;;;12.63;77.59;98843.41;5132170;27;20084;-54
2024/04/02 03:59:35;;;;;;;1.33;0.47;;;;;;;12.65;77.64;98837.94;5132129;27;20407;-54
2024/04/02 04:02:04;;;;;;;0.77;0.50;;;;;;;12.66;78.44;98844.97;5132323;27;20107;-53
2024/04/02 04:04:30;;;;;;;1.83;0.50;;;;;;;12.71;79.32;98846.22;5132244;27;20095;-55
2024/04/02 04:06:58;;;;;;;2.63;0.50;;;;;;;12.79;79.85;98848.19;5132111;27;20131;-55
2024/04/02 04:09:24;;;;;;;0.70;0.50;;;;;;;12.59;80.24;98858.88;5131897;27;20138;-53
2024/04/02 04:11:52;;;;;;;0.93;0.60;;;;;;;12.66;81.18;98858.34;5131687;27;20047;-52
2024/04/02 04:14:18;;;;;;;1.38;0.70;;;;;;;12.70;81.28;98859.75;5131583;27;20128;-51
2024/04/02 04:16:46;;;;;;;0.88;0.50;;;;;;;12.82;80.29;98855.94;5131868;27;20083;-54
2024/04/02 04:19:13;;;;;;;1.30;0.32;;;;;;;12.99;80.02;98844.53;5131844;27;20043;-52
2024/04/02 04:21:40;;;;;;;1.48;0.77;;;;;;;12.73;81.49;98846.06;5131644;27;20047;-53
2024/04/02 04:24:07;;;;;;;0.77;0.73;;;;;;;12.89;80.85;98860.59;5131359;27;20093;-53
2024/04/02 04:26:34;;;;;;;1.25;0.57;;;;;;;13.01;80.51;98852.41;5131293;27;20047;-53
2024/04/02 04:29:00;;;;;;;1.75;0.70;;;;;;;12.82;81.93;98859.47;5131622;27;20127;-55
2024/04/02 04:31:27;;;;;;;1.50;0.95;;;;;;;12.72;81.30;98858.59;5131345;27;20127;-55
2024/04/02 04:33:54;;;;;;;1.17;0.80;;;;;;;12.55;83.07;98873.53;5131404;27;20107;-52
2024/04/02 04:36:22;;;;;;;2.13;1.10;;;;;;;12.69;82.48;98868.75;5131118;27;20047;-53
2024/04/02 04:38:49;;;;;;;1.30;0.85;;;;;;;12.70;82.61;98881.16;5130980;27;20053;-55
2024/04/02 04:41:16;;;;;;;1.35;0.70;;;;;;;12.77;81.72;98866.25;5131219;27;20074;-53
2024/04/02 04:43:42;;;;;;;1.42;0.80;;;;;;;12.82;80.86;98874.66;5131152;27;20047;-53
2024/04/02 04:46:09;;;;;;;1.45;0.90;;;;;;;12.71;80.25;98869.47;5131135;27;20152;-53
2024/04/02 04:48:36;;;;;;;2.72;1.08;;;;;;;12.46;81.12;98895.75;5131024;27;20046;-52
2024/04/02 04:51:05;;;;;;;2.75;0.95;;;;;;;12.54;81.07;98895.88;5130262;27;20047;-54
2024/04/02 04:53:33;;;;;;;1.60;0.95;;;;;;;12.58;81.18;98889.28;5130582;27;20072;-52
2024/04/02 04:56:01;;;;;;;0.90;0.80;;;;;;;12.24;81.76;98902.13;5130794;27;20401;-50
2024/04/02 04:58:28;;;;;;;1.60;1.00;;;;;;;12.36;81.58;98915.44;5130573;27;20076;-53
2024/04/02 05:00:56;;;;;;;2.63;1.20;;;;;;;12.47;82.26;98923.34;5130569;27;20043;-54
2024/04/02 05:03:22;;;;;;;1.85;1.13;;;;;;;12.58;80.85;98921.41;5130299;27;20476;-52
2024/04/02 05:05:50;;;;;;;1.73;1.20;;;;;;;12.55;82.50;98935.06;5129866;27;20047;-52
2024/04/02 05:08:25;;;;;;;1.85;1.20;;;;;;;12.55;83.07;98932.38;5129829;27;20058;-51
2024/04/02 05:10:54;;;;;;;1.42;1.10;;;;;;;12.51;82.47;98935.44;5130450;27;20051;-54
2024/04/02 05:13:21;;;;;;;1.42;1.00;;;;;;;12.46;83.20;98946.56;5130285;27;20126;-53
2024/04/02 05:15:48;;;;;;;1.42;0.98;;;;;;;12.53;83.48;98944.19;5130063;27;20058;-50
2024/04/02 05:18:14;;;;;;;1.30;1.02;;;;;;;12.47;82.29;98958.97;5129842;27;20412;-51
2024/04/02 05:20:42;;;;;;;1.70;0.90;;;;;;;12.64;81.70;98976.16;5130070;27;20047;-52
2024/04/02 05:23:09;;;;;;;3.22;1.20;;;;;;;12.50;82.99;98977.41;5130100;27;20051;-51
2024/04/02 05:25:36;;;;;;;2.00;1.05;;;;;;;12.42;84.01;98971.03;5130377;27;20097;-51
2024/04/02 05:28:05;;;;;;;1.60;1.10;;;;;;;12.39;84.43;98988.19;5130093;27;20107;-50
2024/04/02 05:30:32;;;;;;;2.08;1.20;;;;;;;12.33;84.29;98988.72;5130240;27;20047;-52
2024/04/02 05:32:59;;;;;;;1.17;0.85;;;;;;;12.56;84.07;98998.25;5130111;28;20044;-49
2024/04/02 05:35:26;;;;;;;2.35;1.10;;;;;;;12.39;85.61;99006.91;5130054;28;20055;-51
2024/04/02 05:37:53;;;;;;;2.75;1.13;;;;;;;12.37;85.04;99008.03;5129942;27;20050;-49
2024/04/02 05:40:21;;;;;;;2.67;1.10;;;;;;;12.20;85.90;99007.66;5130044;27;20740;-50
2024/04/02 05:42:48;;;;;;;1.77;1.20;;;;;;;12.48;85.56;99027.50;5130003;27;20107;-49
2024/04/02 05:45:17;;;;;;;1.40;1.00;;;;;;;12.31;85.25;99014.75;5129933;27;20043;-51
2024/04/02 05:47:44;;;;;;;2.92;1.20;;;;;;;12.21;80.05;99019.19;5129775;27;20043;-50
2024/04/02 05:50:15;;;;;;;1.60;0.75;;;;;;;12.29;81.74;99043.44;5130219;27;20153;-51
2024/04/02 05:52:41;;;;;;;4.10;1.10;;;;;;;12.28;82.47;99057.81;5130098;27;20047;-53
2024/04/02 05:55:09;;;;;;;2.05;1.10;;;;;;;11.61;82.02;99069.66;5130580;28;20126;-53
2024/04/02 05:57:35;;;;;;;1.60;1.00;;;;;;;11.72;83.67;99063.44;5130754;27;20086;-51
2024/04/02 06:00:05;;;;;;;2.20;0.90;;;;;;;11.75;82.59;99074.69;5130566;27;20130;-52
2024/04/02 06:02:33;;;;;;;2.08;1.00;;;;;;;11.78;83.21;99076.28;5133284;27;20103;-52
2024/04/02 06:05:00;;;;;;;2.92;0.90;;;;;;;12.03;83.61;99091.97;5134638;27;20503;-50
2024/04/02 06:07:27;;;;;;;2.30;0.77;;;;;;;11.83;84.08;99090.13;5134329;27;20044;-51
2024/04/02 06:09:54;;;;;;;1.95;1.00;;;;;;;12.16;83.78;99085.56;5133702;27;20411;-50
2024/04/02 06:12:20;;;;;;;1.90;1.00;;;;;;;12.29;84.58;99095.09;5133873;27;20047;-51
2024/04/02 06:14:48;;;;;;;2.50;0.77;;;;;;;12.37;83.41;99088.25;5133135;27;20090;-50
2024/04/02 06:17:14;;;;;;;2.58;0.80;;;;;;;12.26;81.71;99099.88;5133219;27;20091;-52
2024/04/02 06:19:43;;;;;;;1.58;0.90;;;;;;;12.18;83.03;99083.63;5133470;27;20084;-50
2024/04/02 06:22:09;;;;;;;1.90;0.82;;;;;;;12.13;81.10;99096.53;5133247;27;20035;-50
2024/04/02 06:24:37;;;;;;;2.72;1.10;;;;;;;12.36;81.98;99087.41;5133536;27;20043;-53
2024/04/02 06:27:04;;;;;;;1.75;0.77;;;;;;;12.36;81.43;99108.81;5133101;27;20035;-50
2024/04/02 06:29:31;;;;;;;1.20;0.80;;;;;;;12.30;81.53;99112.00;5133450;27;20039;-52
2024/04/02 06:31:57;;;;;;;1.58;0.90;;;;;;;12.75;80.83;99115.22;5133346;27;20059;-52
2024/04/02 06:34:25;;;;;;;1.23;0.90;;;;;;;12.93;80.44;99114.56;5133107;27;20095;-50
2024/04/02 06:36:52;;;;;;;1.25;0.70;;;;;;;13.06;80.41;99121.38;5133452;27;20047;-51
2024/04/02 06:39:19;;;;;;;3.38;0.93;;;;;;;12.84;82.53;99126.94;5133282;27;20143;-53
2024/04/02 06:41:49;;;;;;;1.85;0.90;;;;;;;12.92;81.58;99121.75;5133328;27;20047;-50
2024/04/02 06:44:16;;;;;;;3.38;1.02;;;;;;;12.89;81.42;99133.56;5133372;27;20050;-53
2024/04/02 06:46:42;;;;;;;1.73;0.90;;;;;;;12.82;82.42;99126.22;5132925;27;20051;-55
2024/04/02 06:49:09;;;;;;;2.67;0.90;;;;;;;12.94;81.79;99133.19;5132773;27;20074;-52
2024/04/02 06:51:37;;;;;;;2.38;1.33;;;;;;;12.94;81.35;99137.69;5132801;27;20043;-54
2024/04/02 06:54:06;;;;;;;3.83;1.52;;;;;;;13.12;81.47;99139.59;5132989;27;20047;-55
2024/04/02 06:56:32;;;;;;;4.95;2.88;;;;;;;13.14;81.35;99137.63;5133129;27;20054;-52
2024/04/02 06:58:59;;;;;;;4.93;3.60;;;;;;;13.14;81.61;99136.78;5133085;27;20051;-50
2024/04/02 07:01:25;;;;;;;3.90;2.20;;;;;;;13.10;80.52;99149.56;5133146;27;20047;-52
2024/04/02 07:03:53;;;;;;;4.28;1.48;;;;;;;13.31;80.00;99157.56;5133152;27;20054;-52
2024/04/02 07:06:19;;;;;;;2.85;1.30;;;;;;;13.28;80.14;99165.03;5133142;27;20053;-54
2024/04/02 07:08:47;;;;;;;1.30;0.90;;;;;;;13.52;80.18;99165.56;5132910;27;20067;-51
2024/04/02 07:11:15;;;;;;;4.55;2.40;;;;;;;13.63;78.92;99156.53;5133088;27;20043;-51
2024/04/02 07:13:42;;;;;;;8.27;7.05;;;;;;;13.56;78.41;99179.50;5131912;27;20130;-54
2024/04/02 07:16:08;;;;;;;7.95;5.40;;;;;;;13.78;78.43;99173.91;5132354;27;20231;-55
2024/04/02 07:18:36;;;;;;;2.80;2.13;;;;;;;13.73;78.07;99178.84;5132604;27;20040;-55
2024/04/02 07:21:06;;;;;;;7.60;4.80;;;;;;;13.91;77.65;99181.69;5132645;27;20481;-53
2024/04/02 07:23:32;;;;;;;11.05;8.50;;;;;;;13.94;77.85;99189.44;5132673;27;20438;-53
2024/04/02 07:26:00;;;;;;;7.80;5.75;;;;;;;13.72;78.80;99196.75;5132573;27;20139;-54
2024/04/02 07:28:29;;;;;;;12.20;10.95;;;;;;;13.87;77.01;99191.84;5132128;27;20530;-52
2024/04/02 07:30:56;;;;;;;6.95;5.32;;;;;;;13.86;77.41;99200.03;5132414;27;20126;-56
2024/04/02 07:33:23;;;;;;;3.83;1.95;;;;;;;14.03;76.66;99223.47;5132532;27;20089;-57
2024/04/02 07:35:55;;;;;;;2.05;1.15;;;;;;;14.14;75.18;99199.22;5132401;27;20480;-56
2024/04/02 07:38:22;;;;;;;2.83;1.20;;;;;;;13.96;74.84;99230.38;5131831;27;20047;-50
2024/04/02 07:40:49;;;;;;;3.22;0.90;;;;;;;14.03;74.83;99231.53;5131915;27;20474;-50
2024/04/02 07:43:16;;;;;;;1.92;0.73;;;;;;;13.99;74.41;99230.97;5132039;27;20047;-55
2024/04/02 07:45:52;;;;;;;1.40;0.90;;;;;;;14.19;73.84;99237.19;5131974;27;20089;-53
2024/04/02 07:48:18;;;;;;;1.60;0.85;;;;;;;14.27;72.02;99234.63;5131930;27;20051;-51
2024/04/02 07:50:45;;;;;;;1.48;0.95;;;;;;;14.14;72.64;99252.84;5128966;27;20043;-54
2024/04/02 07:53:12;;;;;;;2.88;1.10;;;;;;;14.27;71.97;99258.78;5131576;27;20047;-53
2024/04/02 07:55:39;;;;;;;2.40;0.98;;;;;;;14.38;70.69;99259.63;5131093;27;20047;-51
2024/04/02 07:58:06;;;;;;;2.60;0.82;;;;;;;14.41;70.51;99262.06;5128797;27;20035;-53
2024/04/02 08:00:32;;;;;;;1.88;1.00;;;;;;;14.43;70.58;99273.47;5131542;27;20118;-52
2024/04/02 08:03:01;;;;;;;2.45;0.85;;;;;;;14.53;69.50;99266.31;5131651;27;20047;-50
2024/04/02 08:05:27;;;;;;;2.78;0.80;;;;;;;14.44;70.05;99283.22;5131219;27;20072;-52
2024/04/02 08:07:55;;;;;;;1.45;0.70;;;;;;;14.22;70.24;99282.50;5131435;27;20043;-52
2024/04/02 08:10:21;;;;;;;1.80;0.93;;;;;;;14.58;68.90;99296.28;5131382;27;20053;-49
2024/04/02 08:12:48;;;;;;;2.80;0.95;;;;;;;14.56;68.53;99306.28;5131432;27;20049;-52
2024/04/02 08:15:14;;;;;;;1.23;0.90;;;;;;;14.54;67.89;99317.16;5131637;27;20059;-51
2024/04/02 08:17:42;;;;;;;3.75;1.05;;;;;;;14.61;67.88;99312.09;5131594;27;20081;-53
2024/04/02 08:20:10;;;;;;;3.80;1.13;;;;;;;14.63;68.85;99320.84;5131547;27;20143;-55
2024/04/02 08:22:38;;;;;;;2.10;1.13;;;;;;;14.44;68.22;99326.16;5131553;27;20062;-52
2024/04/02 08:25:07;;;;;;;1.73;1.00;;;;;;;14.31;67.50;99327.25;5131407;27;20043;-54
2024/04/02 08:27:34;;;;;;;4.18;1.10;;;;;;;14.58;66.86;99339.22;5131383;27;20095;-52
2024/04/02 08:30:00;;;;;;;3.33;0.90;;;;;;;14.64;67.03;99346.69;5131203;27;20043;-58
2024/04/02 08:32:28;;;;;;;5.88;1.20;;;;;;;14.37;67.45;99341.94;5131257;27;20047;-52
2024/04/02 08:34:54;;;;;;;2.33;1.10;;;;;;;14.65;67.21;99366.31;5131047;27;20156;-53
2024/04/02 08:37:23;;;;;;;3.97;1.10;;;;;;;14.43;66.89;99353.97;5130999;27;20585;-53
2024/04/02 08:39:49;;;;;;;2.88;1.13;;;;;;;14.45;67.36;99354.69;5131336;27;20131;-55
2024/04/02 08:42:19;;;;;;;3.42;1.65;;;;;;;14.64;65.67;99357.41;5130724;27;20100;-51
2024/04/02 08:44:47;;;;;;;6.03;2.45;;;;;;;14.75;65.85;99361.81;5130652;27;20086;-55
2024/04/02 08:47:14;;;;;;;3.00;0.90;;;;;;;14.75;65.89;99368.00;5130742;27;20050;-50
2024/04/02 08:49:42;;;;;;;2.53;1.08;;;;;;;14.79;65.59;99373.97;5130867;27;20039;-51
2024/04/02 08:52:09;;;;;;;4.93;1.55;;;;;;;15.03;65.42;99373.53;5130681;27;20087;-55
2024/04/02 08:54:37;;;;;;;2.40;0.98;;;;;;;14.80;65.56;99375.66;5135945;27;20054;-55
2024/04/02 08:57:05;;;;;;;4.68;1.38;;;;;;;14.60;65.53;99375.66;5151381;27;20042;-53
2024/04/02 08:59:34;;;;;;;1.88;0.95;;;;;;;14.75;65.42;99397.53;5139162;27;20062;-53
2024/04/02 09:02:03;;;;;;;3.13;1.30;;;;;;;14.99;64.43;99390.94;5133226;27;20106;-50
2024/04/02 09:04:32;;;;;;;3.10;1.20;;;;;;;15.17;64.03;99402.66;5129803;27;20047;-51
2024/04/02 09:06:59;;;;;;;2.30;1.00;;;;;;;15.03;63.24;99393.19;5128976;27;20039;-50
2024/04/02 09:09:26;;;;;;;5.20;1.55;;;;;;;15.39;62.79;99405.03;5130004;27;20380;-55
2024/04/02 09:11:55;;;;;;;2.85;1.40;;;;;;;15.60;62.17;99418.34;5129804;27;20039;-54
2024/04/02 09:14:22;;;;;;;2.50;0.90;;;;;;;15.67;61.08;99399.78;5129798;27;20062;-56
2024/04/02 09:16:53;;;;;;;5.57;1.13;;;;;;;15.60;60.25;99395.94;5130426;27;20381;-52
2024/04/02 09:19:19;;;;;;;3.72;1.58;;;;;;;15.64;60.49;99416.22;5130199;27;20053;-53
2024/04/02 09:21:46;;;;;;;1.95;1.00;;;;;;;16.08;59.91;99422.72;5130123;27;20039;-54
2024/04/02 09:24:12;;;;;;;3.22;1.35;;;;;;;16.04;59.91;99429.41;5130484;27;20113;-51
2024/04/02 09:26:40;;;;;;;3.97;1.50;;;;;;;16.09;59.41;99419.03;5130109;27;20078;-52
2024/04/02 09:29:08;;;;;;;3.50;1.70;;;;;;;15.91;58.62;99437.78;5128853;27;20499;-53
2024/04/02 09:31:35;;;;;;;2.13;1.40;;;;;;;16.19;59.24;99451.28;5129543;27;20100;-53
2024/04/02 09:34:05;;;;;;;3.28;1.48;;;;;;;16.34;58.70;99447.13;5129375;28;20433;-53
2024/04/02 09:36:44;;;;;;;4.07;1.30;;;;;;;16.19;56.73;99452.13;5132325;27;20047;-51
2024/04/02 09:39:11;;;;;;;1.67;0.90;;;;;;;16.14;56.30;99469.72;5134678;27;20127;-50
2024/04/02 09:41:40;;;;;;;3.47;1.13;;;;;;;15.85;56.88;99462.59;5137034;27;20194;-54
2024/04/02 09:44:11;;;;;;;1.77;0.90;;;;;;;16.15;57.40;99466.88;5136930;27;20407;-51
2024/04/02 09:46:40;;;;;;;1.92;0.90;;;;;;;16.25;57.30;99477.63;5136546;27;20108;-51
2024/04/02 09:49:08;;;;;;;1.50;0.90;;;;;;;16.67;57.14;99475.28;5136908;27;20047;-55
2024/04/02 09:51:36;;;;;;;2.40;1.00;;;;;;;16.85;56.39;99487.00;5136847;27;20456;-53
2024/04/02 09:54:03;;;;;;;1.95;0.90;;;;;;;16.48;56.02;99476.22;5136886;27;20051;-53
2024/04/02 09:56:32;;;;;;;3.10;1.10;;;;;;;16.43;56.45;99478.53;5136966;27;20392;-51
2024/04/02 09:58:59;;;;;;;4.57;0.93;;;;;;;16.56;55.95;99478.19;5136730;27;20049;-50
2024/04/02 10:01:31;;;;;;;2.45;1.00;;;;;;;16.44;56.07;99477.53;5136937;27;20053;-51
2024/04/02 10:04:01;;;;;;;3.45;0.98;;;;;;;16.53;55.04;99482.03;5136827;27;20043;-52
2024/04/02 10:06:33;;;;;;;2.30;0.90;;;;;;;16.23;55.81;99490.38;5136920;27;20086;-55
2024/04/02 10:09:02;;;;;;;1.63;0.90;;;;;;;16.51;56.37;99473.28;5136630;27;20051;-52
2024/04/02 10:11:47;;;;;;;1.48;0.90;;;;;;;16.77;55.15;99486.03;5136958;27;20043;-51
2024/04/02 10:14:14;;;;;;;1.85;0.80;;;;;;;16.77;55.41;99488.75;5137113;27;20043;-55
2024/04/02 10:16:44;;;;;;;1.25;0.70;;;;;;;16.82;55.19;99481.91;5136297;27;20064;-52
2024/04/02 10:19:12;;;;;;;2.13;1.00;;;;;;;17.03;54.78;99484.34;5136992;27;20072;-51
2024/04/02 10:21:39;;;;;;;2.25;1.00;;;;;;;17.06;54.78;99485.88;5136403;27;20360;-52
2024/04/02 10:24:07;;;;;;;1.58;0.80;;;;;;;17.21;53.80;99480.81;5136367;27;20039;-53
2024/04/02 10:26:38;;;;;;;1.67;1.00;;;;;;;16.20;54.21;99496.03;5137061;27;20495;-57
2024/04/02 10:29:06;;;;;;;1.77;0.90;;;;;;;16.65;54.19;99489.91;5136081;27;20054;-54
2024/04/02 10:31:38;;;;;;;2.88;1.10;;;;;;;16.40;53.73;99497.66;5134081;27;20087;-56
2024/04/02 10:34:10;;;;;;;4.03;0.90;;;;;;;16.69;54.43;99491.31;5132111;27;20047;-52
2024/04/02 10:36:38;;;;;;;2.15;0.82;;;;;;;16.91;53.73;99485.56;5136141;27;20567;-53
2024/04/02 10:39:09;;;;;;;1.63;0.77;;;;;;;16.85;53.39;99489.69;5119853;27;20047;-52
2024/04/02 10:41:37;;;;;;;0.80;0.50;;;;;;;16.98;53.31;99494.69;5137417;27;20043;-52
2024/04/02 10:44:05;;;;;;;1.90;0.77;;;;;;;17.25;52.06;99495.66;5136883;27;20385;-54
2024/04/02 10:46:32;;;;;;;1.88;0.77;;;;;;;16.95;51.85;99513.88;5136779;27;20047;-52
2024/04/02 10:48:59;;;;;;;2.05;0.90;;;;;;;17.28;51.60;99504.31;5133231;27;20403;-52
2024/04/02 10:51:31;;;;;;;2.33;0.75;;;;;;;17.56;50.96;99507.75;5133405;27;20050;-52
2024/04/02 10:54:01;;;;;;;2.97;0.93;;;;;;;17.71;51.48;99506.25;5133243;27;20079;-50
2024/04/02 10:56:30;;;;;;;3.05;0.80;;;;;;;17.80;50.14;99509.84;5133533;27;20051;-55
2024/04/02 10:58:58;;;;;;;1.25;0.60;;;;;;;17.72;49.51;99507.94;5133341;27;20092;-50
2024/04/02 11:01:27;;;;;;;3.10;0.90;;;;;;;17.70;48.97;99499.16;5133551;27;20380;-55
2024/04/02 11:03:54;;;;;;;2.47;1.33;;;;;;;17.49;47.95;99512.09;5132434;27;20046;-54
2024/04/02 11:06:22;;;;;;;2.05;1.00;;;;;;;17.71;48.39;99508.94;5133580;27;20497;-51
2024/04/02 11:08:50;;;;;;;1.15;0.55;;;;;;;17.91;48.60;99506.06;5133574;27;20075;-55
2024/04/02 11:11:21;;;;;;;3.15;0.68;;;;;;;17.79;48.35;99508.16;5133584;27;20101;-51
2024/04/02 11:13:48;;;;;;;1.80;0.70;;;;;;;17.96;49.07;99519.94;5133182;27;20494;-54
2024/04/02 11:16:17;;;;;;;1.23;0.60;;;;;;;18.14;49.06;99517.16;5133181;27;20058;-53
2024/04/02 11:18:44;;;;;;;2.97;0.70;;;;;;;18.34;48.61;99515.13;5133260;27;20043;-53
2024/04/02 11:21:16;;;;;;;0.90;0.70;;;;;;;18.24;48.41;99510.69;5133115;27;20078;-52
2024/04/02 11:26:29;;;;;;;3.38;0.90;;;;;;;17.80;48.72;99530.59;5133009;27;20500;-54
2024/04/02 11:29:04;;;;;;;3.30;0.98;;;;;;;18.16;48.61;99520.59;5116150;27;20043;-52
2024/04/02 11:31:31;;;;;;;2.00;0.52;;;;;;;18.15;47.87;99519.75;5134390;27;20048;-54
2024/04/02 11:33:58;;;;;;;2.00;0.85;;;;;;;18.14;48.06;99517.16;5152402;27;20058;-54
2024/04/02 11:36:25;;;;;;;3.50;1.00;;;;;;;18.10;48.52;99527.44;5153195;27;20050;-55
2024/04/02 11:38:52;;;;;;;2.38;0.88;;;;;;;18.19;48.53;99520.25;5153727;27;20078;-54